Afton, Wisconsin
Current Conditions -  °F | °C
As of 9:45 AM on Thursday 29 Jan 2015 (Local Time) from KJVL Reporting Station
Overcast Overcast  
Wind Chill: -5°   Ceiling: 1900
Heat Index:   Visibility: 7mi
Dew Point: -3°   Wind: 16mph
Humidity: 75%   Direction: 330°NNW
Pressure: 29.91"   Gusts: NA
Location:  42.6°N, 89.07°W
Report Text: KJVL 291545Z 33014KT 7SM OVC019 01/M03 A2991
Loading
Personal Weather Stations






























Interactive Weather Map New forecast layout! Learn more

10-Day Weather Forecast

Advertisements
Track Severe Weather on mobile